createdAt,value
2022-08-10T00:01:03.867Z,87.74
2022-08-10T00:03:08.024Z,88.16
2022-08-10T00:05:10.807Z,87.83
2022-08-10T00:07:13.510Z,88.45
2022-08-10T00:09:16.249Z,88.97
2022-08-10T00:11:19.267Z,89.10
2022-08-10T00:13:23.545Z,89.48
2022-08-10T00:15:52.702Z,89.04
2022-08-10T00:17:49.263Z,88.89
2022-08-10T00:20:03.138Z,88.87
2022-08-10T00:22:07.124Z,89.53
2022-08-10T00:24:09.782Z,88.89
2022-08-10T00:26:12.472Z,88.86
2022-08-10T00:28:15.270Z,88.90
2022-08-10T00:30:18.003Z,89.32
2022-08-10T00:32:20.915Z,89.37
2022-08-10T00:34:23.982Z,89.65
2022-08-10T00:36:26.683Z,89.57
2022-08-10T00:38:37.193Z,89.12
2022-08-10T00:40:39.858Z,88.68
2022-08-10T00:42:42.747Z,88.63
2022-08-10T00:44:49.215Z,87.70
2022-08-10T00:46:51.872Z,86.51
2022-08-10T00:49:00.426Z,85.98
2022-08-10T00:51:03.788Z,86.01
2022-08-10T00:53:06.559Z,85.46
2022-08-10T00:55:09.411Z,84.81
2022-08-10T00:57:17.836Z,84.18
2022-08-10T00:59:21.488Z,83.76
2022-08-10T01:02:09.664Z,82.53
2022-08-10T01:04:39.651Z,82.10
2022-08-10T01:06:27.440Z,80.77
2022-08-10T01:08:40.144Z,80.22
2022-08-10T01:10:51.733Z,79.71
2022-08-10T01:13:08.777Z,79.40
2022-08-10T01:15:21.636Z,79.53
2022-08-10T01:17:49.679Z,79.49
2022-08-10T01:20:09.467Z,79.95
2022-08-10T01:22:11.955Z,79.51
2022-08-10T01:24:17.122Z,79.51
2022-08-10T01:26:57.332Z,79.49
2022-08-10T01:29:37.626Z,79.82
2022-08-10T01:31:50.016Z,79.66
2022-08-10T01:34:02.006Z,79.47
2022-08-10T01:36:20.966Z,79.85
2022-08-10T01:38:40.591Z,79.96
2022-08-10T01:40:53.930Z,80.67
2022-08-10T01:43:08.641Z,80.96
2022-08-10T01:45:14.464Z,81.17
2022-08-10T01:47:37.998Z,80.88
2022-08-10T01:49:40.688Z,79.86
2022-08-10T01:51:47.914Z,79.70
2022-08-10T01:53:56.539Z,79.83
2022-08-10T01:56:00.823Z,80.01
2022-08-10T01:58:05.767Z,80.58
2022-08-10T02:00:09.281Z,80.74
2022-08-10T02:02:15.591Z,80.59
2022-08-10T02:04:21.140Z,80.15
2022-08-10T02:06:27.025Z,79.55
2022-08-10T02:08:32.828Z,79.12
2022-08-10T02:10:39.771Z,79.02
2022-08-10T02:12:43.804Z,78.66
2022-08-10T02:15:06.323Z,78.76
2022-08-10T02:17:57.656Z,78.35
2022-08-10T02:19:39.704Z,78.50
2022-08-10T02:22:15.372Z,78.46
2022-08-10T02:24:08.936Z,79.00
2022-08-10T02:26:13.215Z,79.45
2022-08-10T02:28:27.063Z,79.41
2022-08-10T02:30:34.471Z,78.86
2022-08-10T02:32:38.876Z,78.37
2022-08-10T02:34:42.767Z,77.40
2022-08-10T02:36:52.246Z,76.74
2022-08-10T02:39:01.068Z,76.19
2022-08-10T02:45:03.058Z,75.90
2022-08-10T02:45:27.222Z,75.24
2022-08-10T02:46:22.449Z,74.89
2022-08-10T02:48:37.925Z,74.76
2022-08-10T02:50:43.406Z,74.56
2022-08-10T02:52:51.113Z,74.39
2022-08-10T02:55:11.265Z,74.32
2022-08-10T02:57:29.354Z,74.92
2022-08-10T02:59:44.735Z,74.29
2022-08-10T03:01:50.131Z,74.14
2022-08-10T03:04:00.205Z,74.33
2022-08-10T03:06:10.978Z,74.73
2022-08-10T03:08:18.638Z,74.41
2022-08-10T03:10:30.864Z,74.84
2022-08-10T03:12:38.768Z,74.75
2022-08-10T03:14:43.411Z,74.73
2022-08-10T03:16:47.932Z,74.92
2022-08-10T03:18:53.131Z,75.21
2022-08-10T03:20:57.438Z,75.96
2022-08-10T03:23:01.792Z,76.28
2022-08-10T03:25:05.083Z,76.43
2022-08-10T03:27:08.587Z,76.17
2022-08-10T03:29:11.737Z,76.15
2022-08-10T03:31:14.446Z,75.69
2022-08-10T03:33:18.274Z,75.38
2022-08-10T03:35:21.990Z,74.43
2022-08-10T03:37:24.799Z,73.18
2022-08-10T03:39:27.869Z,72.46
2022-08-10T03:41:55.732Z,71.76
2022-08-10T03:44:00.655Z,71.08
2022-08-10T03:46:08.179Z,70.50
2022-08-10T03:48:12.157Z,70.21
2022-08-10T03:50:27.976Z,69.91
2022-08-10T03:52:39.707Z,68.95
2022-08-10T03:54:43.216Z,67.77
2022-08-10T03:56:46.442Z,66.83
2022-08-10T03:58:49.353Z,66.95
2022-08-10T04:00:52.836Z,66.01
2022-08-10T04:02:56.382Z,65.52
2022-08-10T04:04:59.178Z,65.54
2022-08-10T04:07:03.815Z,64.90
2022-08-10T04:09:06.586Z,64.56
2022-08-10T04:11:10.506Z,63.93
2022-08-10T04:13:13.153Z,63.79
2022-08-10T04:15:15.765Z,63.82
2022-08-10T04:17:18.533Z,63.64
2022-08-10T04:19:49.367Z,63.76
2022-08-10T04:22:05.293Z,64.14
2022-08-10T04:24:11.105Z,63.96
2022-08-10T04:26:29.930Z,63.35
2022-08-10T04:28:33.003Z,63.43
2022-08-10T04:30:36.566Z,62.98
2022-08-10T04:32:41.118Z,61.64
2022-08-10T04:34:46.014Z,60.37
2022-08-10T04:36:51.735Z,59.83
2022-08-10T04:38:55.763Z,60.06
2022-08-10T04:40:58.876Z,59.85
2022-08-10T04:43:11.218Z,59.29
2022-08-10T04:45:15.347Z,59.51
2022-08-10T04:47:51.209Z,61.76
2022-08-10T04:49:56.297Z,62.53
2022-08-10T04:51:59.679Z,63.33
2022-08-10T04:54:06.575Z,63.88
2022-08-10T04:56:10.366Z,65.05
2022-08-10T04:58:14.432Z,64.56
2022-08-10T05:00:18.005Z,64.81
2022-08-10T05:02:31.037Z,64.43
2022-08-10T05:04:38.982Z,64.94
2022-08-10T05:06:42.311Z,65.20
2022-08-10T05:08:44.967Z,64.99
2022-08-10T05:10:47.623Z,64.25
2022-08-10T05:12:50.272Z,64.17
2022-08-10T05:14:53.106Z,63.59
2022-08-10T05:16:57.365Z,62.94
2022-08-10T05:18:59.969Z,62.89
2022-08-10T05:21:02.724Z,61.48
2022-08-10T05:23:05.508Z,60.47
2022-08-10T05:25:17.327Z,61.50
2022-08-10T05:27:20.002Z,59.13
2022-08-10T05:29:22.952Z,58.50
2022-08-10T05:31:25.855Z,58.56
2022-08-10T05:33:28.481Z,57.82
2022-08-10T05:35:52.395Z,57.68
2022-08-10T05:38:11.451Z,57.29
2022-08-10T05:40:17.819Z,56.66
2022-08-10T05:42:21.981Z,56.98
2022-08-10T05:44:25.387Z,57.20
2022-08-10T05:46:28.608Z,56.98
2022-08-10T05:48:53.922Z,57.78
2022-08-10T05:50:54.232Z,58.00
2022-08-10T05:52:57.844Z,58.25
2022-08-10T05:55:02.910Z,58.23
2022-08-10T05:57:06.851Z,59.48
2022-08-10T05:59:16.026Z,58.16
2022-08-10T06:01:44.780Z,58.24
2022-08-10T06:04:10.392Z,58.92
2022-08-10T06:06:14.218Z,58.51
2022-08-10T06:08:20.292Z,57.52
2022-08-10T06:10:31.910Z,57.95
2022-08-10T06:12:55.207Z,58.06
2022-08-10T06:15:05.657Z,57.49
2022-08-10T06:17:14.067Z,56.98
2022-08-10T06:19:17.727Z,55.82
2022-08-10T06:21:21.163Z,54.64
2022-08-10T06:23:25.971Z,53.39
2022-08-10T06:26:08.519Z,54.06
2022-08-10T06:27:55.504Z,53.30
2022-08-10T06:30:01.315Z,53.64
2022-08-10T06:32:05.945Z,54.24
2022-08-10T06:34:11.127Z,55.18
2022-08-10T06:36:15.527Z,56.44
2022-08-10T06:38:19.151Z,58.31
2022-08-10T06:40:22.920Z,58.03
2022-08-10T06:42:34.015Z,57.79
2022-08-10T06:44:41.112Z,58.15
2022-08-10T06:46:48.713Z,59.25
2022-08-10T06:48:55.950Z,59.11
2022-08-10T06:51:05.299Z,59.07
2022-08-10T06:53:20.252Z,59.21
2022-08-10T06:55:39.984Z,57.78
2022-08-10T06:57:59.404Z,57.74
2022-08-10T07:00:05.943Z,58.36
2022-08-10T07:02:13.418Z,58.59
2022-08-10T07:04:31.936Z,58.76
2022-08-10T07:06:37.522Z,58.65
2022-08-10T07:08:41.591Z,58.04
2022-08-10T07:10:46.843Z,57.14
2022-08-10T07:12:52.863Z,57.44
2022-08-10T07:14:57.253Z,57.55
2022-08-10T07:17:00.631Z,58.91
2022-08-10T07:19:04.653Z,57.53
2022-08-10T07:21:08.725Z,58.26
2022-08-10T07:23:56.789Z,59.32
2022-08-10T07:25:38.665Z,61.04
2022-08-10T07:28:00.627Z,60.59
2022-08-10T07:30:05.195Z,59.89
2022-08-10T07:32:09.194Z,59.43
2022-08-10T07:34:21.735Z,59.42
2022-08-10T07:36:35.728Z,59.60
2022-08-10T07:38:40.908Z,58.67
2022-08-10T07:40:45.473Z,58.68
2022-08-10T07:42:53.995Z,58.55
2022-08-10T07:44:57.107Z,57.61
2022-08-10T07:47:04.410Z,58.08
2022-08-10T07:49:19.232Z,56.44
2022-08-10T07:51:23.432Z,57.92
2022-08-10T07:53:30.868Z,57.73
2022-08-10T07:56:05.317Z,57.63
2022-08-10T07:58:00.869Z,58.07
2022-08-10T08:00:08.776Z,58.60
2022-08-10T08:02:23.837Z,58.85
2022-08-10T08:04:29.073Z,58.97
2022-08-10T08:06:33.866Z,58.31
2022-08-10T08:08:38.923Z,58.30
2022-08-10T08:10:42.504Z,58.55
2022-08-10T08:12:46.591Z,57.98
2022-08-10T08:14:51.351Z,56.83
2022-08-10T08:16:55.959Z,55.15
2022-08-10T08:19:26.355Z,53.83
2022-08-10T08:24:06.313Z,54.04
2022-08-10T08:24:06.696Z,51.29
2022-08-10T08:26:15.520Z,51.07
2022-08-10T08:28:19.202Z,51.90
2022-08-10T08:30:27.861Z,50.88
2022-08-10T08:32:33.647Z,51.67
2022-08-10T08:34:43.040Z,51.57
2022-08-10T08:36:47.177Z,51.75
2022-08-10T08:38:51.546Z,51.83
2022-08-10T08:41:04.157Z,52.65
2022-08-10T08:43:21.417Z,52.98
2022-08-10T08:45:58.667Z,53.74
2022-08-10T08:48:20.110Z,53.50
2022-08-10T08:50:57.171Z,54.04
2022-08-10T08:54:02.982Z,53.53
2022-08-10T08:56:28.672Z,51.67
2022-08-10T08:59:08.884Z,52.07
2022-08-10T09:01:43.667Z,55.48
2022-08-10T09:04:07.063Z,55.12
2022-08-10T09:06:33.486Z,51.35
2022-08-10T09:09:06.381Z,51.75
2022-08-10T09:11:30.991Z,52.47
2022-08-10T09:13:59.079Z,51.38
2022-08-10T09:16:24.470Z,50.08
2022-08-10T09:19:01.936Z,51.49
2022-08-10T09:21:13.644Z,50.35
2022-08-10T09:24:04.212Z,51.29
2022-08-10T09:25:59.722Z,50.56
2022-08-10T09:28:07.102Z,50.21
2022-08-10T09:30:13.318Z,49.82
2022-08-10T09:36:15.122Z,49.41
2022-08-10T09:36:29.756Z,48.75
2022-08-10T09:38:01.332Z,48.99
2022-08-10T09:40:59.769Z,47.60
2022-08-10T09:43:26.737Z,47.90
2022-08-10T09:45:35.168Z,46.43
2022-08-10T09:48:10.016Z,47.12
2022-08-10T09:50:19.218Z,46.91
2022-08-10T09:52:40.401Z,46.82
2022-08-10T09:55:03.930Z,47.11
2022-08-10T09:57:44.166Z,46.71
2022-08-10T10:00:05.683Z,45.44
2022-08-10T10:02:27.868Z,44.36
2022-08-10T10:05:01.343Z,44.30
2022-08-10T10:07:08.822Z,44.88
2022-08-10T10:09:26.632Z,44.81
2022-08-10T10:11:53.402Z,45.26
2022-08-10T10:15:10.024Z,45.53
2022-08-10T10:17:40.673Z,45.12
2022-08-10T10:19:53.960Z,45.61
2022-08-10T10:21:56.817Z,47.08
2022-08-10T10:24:20.435Z,47.88
2022-08-10T10:27:22.048Z,49.90
2022-08-10T10:29:58.078Z,49.81
2022-08-10T10:32:04.216Z,51.29
2022-08-10T10:34:16.792Z,52.22
2022-08-10T10:36:21.098Z,53.12
2022-08-10T10:38:27.683Z,52.55
2022-08-10T10:40:39.550Z,53.17
2022-08-10T10:43:01.130Z,52.87
2022-08-10T10:45:06.963Z,52.87
2022-08-10T10:47:28.078Z,53.96
2022-08-10T10:49:36.437Z,54.52
2022-08-10T10:51:48.437Z,53.78
2022-08-10T10:54:15.855Z,53.93
2022-08-10T10:56:28.530Z,53.81
2022-08-10T10:58:41.431Z,53.75
2022-08-10T11:00:53.419Z,53.43
2022-08-10T11:03:08.278Z,53.32
2022-08-10T11:05:34.003Z,52.31
2022-08-10T11:07:45.857Z,52.48
2022-08-10T11:10:05.131Z,53.77
2022-08-10T11:12:32.220Z,54.32
2022-08-10T11:14:47.804Z,54.83
2022-08-10T11:17:01.340Z,56.36
2022-08-10T11:19:23.748Z,56.45
2022-08-10T11:21:35.055Z,57.68
2022-08-10T11:24:42.611Z,57.45
2022-08-10T11:26:29.298Z,57.69
2022-08-10T11:28:41.176Z,57.20
2022-08-10T11:31:07.333Z,57.88
2022-08-10T11:34:04.094Z,58.81
2022-08-10T11:36:29.192Z,59.69
2022-08-10T11:38:42.856Z,60.31
2022-08-10T11:42:05.208Z,60.63
2022-08-10T11:43:35.875Z,60.19
2022-08-10T11:45:52.224Z,60.23
2022-08-10T11:48:54.289Z,60.38
2022-08-10T11:50:51.815Z,59.33
2022-08-10T11:53:07.292Z,59.29
2022-08-10T11:55:29.444Z,57.59
2022-08-10T11:57:54.482Z,56.35
2022-08-10T11:59:58.146Z,56.23
2022-08-10T12:02:03.051Z,56.25
2022-08-10T12:04:10.812Z,56.06
2022-08-10T12:06:33.696Z,55.69
2022-08-10T12:10:03.841Z,56.47
2022-08-10T12:11:18.129Z,54.49
2022-08-10T12:13:31.584Z,53.81
2022-08-10T12:15:41.634Z,53.25
2022-08-10T12:17:50.178Z,52.02
2022-08-10T12:20:06.887Z,52.53
2022-08-10T12:22:16.420Z,52.82
2022-08-10T12:24:26.331Z,52.26
2022-08-10T12:26:38.667Z,54.75
2022-08-10T12:28:51.917Z,55.18
2022-08-10T12:30:58.228Z,56.04
2022-08-10T12:33:08.589Z,56.88
2022-08-10T12:35:33.146Z,57.32
2022-08-10T12:37:50.743Z,57.96
2022-08-10T12:40:33.270Z,59.00
2022-08-10T12:42:38.837Z,59.09
2022-08-10T12:44:50.655Z,59.92
2022-08-10T12:47:01.360Z,60.88
2022-08-10T12:49:25.259Z,61.61
2022-08-10T12:51:30.660Z,61.55
2022-08-10T12:53:39.129Z,61.58
2022-08-10T12:55:42.985Z,61.96
2022-08-10T12:57:52.675Z,62.29
2022-08-10T13:00:00.424Z,63.11
2022-08-10T13:02:06.187Z,63.78
2022-08-10T13:04:21.915Z,64.21
2022-08-10T13:06:29.364Z,64.10
2022-08-10T13:08:54.365Z,64.75
2022-08-10T13:11:02.679Z,65.42
2022-08-10T13:13:05.819Z,65.46
2022-08-10T13:15:46.083Z,66.38
2022-08-10T13:17:52.504Z,67.41
2022-08-10T13:20:03.423Z,67.59
2022-08-10T13:22:13.198Z,67.84
2022-08-10T13:24:20.505Z,67.94
2022-08-10T13:26:26.768Z,68.13
2022-08-10T13:29:02.012Z,67.91
2022-08-10T13:31:11.714Z,67.49
2022-08-10T13:34:03.603Z,66.98
2022-08-10T13:35:56.228Z,66.54
2022-08-10T13:38:03.944Z,66.36
2022-08-10T13:40:11.838Z,66.46
2022-08-10T13:42:15.651Z,66.83
2022-08-10T13:44:43.549Z,67.53
2022-08-10T13:46:55.167Z,66.90
2022-08-10T13:49:03.373Z,67.11
2022-08-10T13:51:07.519Z,67.92
2022-08-10T13:53:15.842Z,67.93
2022-08-10T13:55:24.240Z,68.61
2022-08-10T13:57:37.012Z,68.94
2022-08-10T14:00:34.048Z,69.49
2022-08-10T14:02:14.514Z,69.38
2022-08-10T14:04:19.971Z,69.07
2022-08-10T14:06:29.610Z,69.18
2022-08-10T14:08:35.542Z,69.37
2022-08-10T14:11:08.644Z,69.11
2022-08-10T14:13:07.753Z,69.28
2022-08-10T14:15:15.803Z,69.21
2022-08-10T14:17:22.460Z,68.84
2022-08-10T14:19:27.824Z,68.29
2022-08-10T14:21:39.480Z,67.93
2022-08-10T14:23:52.422Z,67.80
2022-08-10T14:26:04.165Z,67.95
2022-08-10T14:28:09.691Z,68.45
2022-08-10T14:30:17.179Z,69.28
2022-08-10T14:32:24.049Z,69.65
2022-08-10T14:36:14.786Z,70.20
2022-08-10T14:37:06.144Z,70.60
2022-08-10T14:39:12.658Z,70.53
2022-08-10T14:42:04.500Z,71.04
2022-08-10T14:44:01.084Z,71.18
2022-08-10T14:46:19.813Z,71.73
2022-08-10T14:48:32.842Z,71.26
2022-08-10T14:50:36.160Z,71.24
2022-08-10T14:52:44.419Z,71.54
2022-08-10T14:54:50.624Z,71.59
2022-08-10T14:56:53.893Z,71.65
2022-08-10T14:59:09.392Z,71.73
2022-08-10T15:01:19.081Z,71.77
2022-08-10T15:03:59.401Z,71.39
2022-08-10T15:05:50.537Z,71.67
2022-08-10T15:07:58.712Z,71.89
2022-08-10T15:10:04.622Z,72.04
2022-08-10T15:12:14.034Z,72.30
2022-08-10T15:14:43.428Z,73.24
2022-08-10T15:16:47.556Z,72.55
2022-08-10T15:18:57.810Z,72.54
2022-08-10T15:21:17.097Z,72.42
2022-08-10T15:23:30.833Z,71.73
2022-08-10T15:25:57.788Z,71.49
2022-08-10T15:28:06.658Z,71.65
2022-08-10T15:30:12.122Z,71.71
2022-08-10T15:32:33.350Z,71.55
2022-08-10T15:34:55.041Z,71.51
2022-08-10T15:37:40.564Z,71.03
2022-08-10T15:40:25.174Z,70.80
2022-08-10T15:42:10.606Z,70.14
2022-08-10T15:44:13.410Z,70.01
2022-08-10T15:46:30.073Z,69.60
2022-08-10T15:48:48.271Z,69.38
2022-08-10T15:51:01.058Z,69.40
2022-08-10T15:53:16.791Z,69.74
2022-08-10T15:55:41.282Z,70.21
2022-08-10T15:57:56.982Z,70.52
2022-08-10T16:00:07.947Z,70.91
2022-08-10T16:02:17.767Z,70.89
2022-08-10T16:04:32.400Z,70.75
2022-08-10T16:06:42.095Z,70.83
2022-08-10T16:08:57.210Z,70.89
2022-08-10T16:11:16.794Z,70.99
2022-08-10T16:13:50.663Z,70.47
2022-08-10T16:15:53.253Z,71.48
2022-08-10T16:18:01.691Z,71.79
2022-08-10T16:20:05.620Z,72.27
2022-08-10T16:22:36.466Z,72.68
2022-08-10T16:24:39.004Z,72.89
2022-08-10T16:26:46.625Z,73.17
2022-08-10T16:28:56.426Z,73.60
2022-08-10T16:31:01.949Z,73.47
2022-08-10T16:33:05.579Z,73.73
2022-08-10T16:35:15.764Z,73.71
2022-08-10T16:37:21.190Z,74.03
2022-08-10T16:39:58.506Z,74.76
2022-08-10T16:42:05.013Z,75.31
2022-08-10T16:44:11.154Z,75.65
2022-08-10T16:46:16.992Z,76.03
2022-08-10T16:48:49.418Z,76.87
2022-08-10T16:50:55.812Z,77.04
2022-08-10T16:53:02.379Z,77.33
2022-08-10T16:55:23.390Z,77.30
2022-08-10T16:57:30.171Z,77.67
2022-08-10T16:59:38.030Z,77.75
2022-08-10T17:01:42.161Z,78.01
2022-08-10T17:04:07.862Z,78.14
2022-08-10T17:06:18.100Z,78.43
2022-08-10T17:08:22.935Z,78.72
2022-08-10T17:10:29.767Z,78.98
2022-08-10T17:12:33.848Z,79.09
2022-08-10T17:14:39.404Z,79.55
2022-08-10T17:16:45.392Z,79.55
2022-08-10T17:18:48.758Z,80.18
2022-08-10T17:20:51.674Z,80.52
2022-08-10T17:23:00.621Z,80.75
2022-08-10T17:25:11.417Z,81.24
2022-08-10T17:28:05.880Z,81.72
2022-08-10T17:29:58.691Z,81.57
2022-08-10T17:32:15.968Z,82.17
2022-08-10T17:34:24.999Z,82.52
2022-08-10T17:36:32.851Z,83.04
2022-08-10T17:38:38.375Z,83.00
2022-08-10T17:41:11.889Z,83.27
2022-08-10T17:44:00.805Z,83.35
2022-08-10T17:45:52.213Z,83.73
2022-08-10T17:47:58.438Z,83.64
2022-08-10T17:50:01.647Z,83.97
2022-08-10T17:52:10.893Z,83.96
2022-08-10T17:54:28.213Z,84.29
2022-08-10T17:56:34.750Z,84.52
2022-08-10T17:58:46.427Z,84.33
2022-08-10T18:00:51.815Z,84.60
2022-08-10T18:02:55.394Z,84.68
2022-08-10T18:04:59.877Z,84.97
2022-08-10T18:07:03.659Z,84.96
2022-08-10T18:09:17.707Z,85.19
2022-08-10T18:11:20.717Z,84.93
2022-08-10T18:13:25.940Z,84.98
2022-08-10T18:15:31.845Z,85.39
2022-08-10T18:17:41.086Z,85.03
2022-08-10T18:19:47.075Z,85.19
2022-08-10T18:21:50.748Z,85.17
2022-08-10T18:23:59.525Z,84.93
2022-08-10T18:26:06.454Z,84.68
2022-08-10T18:28:15.582Z,84.37
2022-08-10T18:30:20.018Z,84.26
2022-08-10T18:32:26.306Z,84.24
2022-08-10T18:34:32.157Z,84.14
2022-08-10T18:36:40.882Z,84.17
2022-08-10T18:38:47.906Z,84.34
2022-08-10T18:41:02.923Z,84.54
2022-08-10T18:44:06.735Z,84.68
2022-08-10T18:45:36.783Z,85.22
2022-08-10T18:47:59.101Z,85.75
2022-08-10T18:50:17.423Z,85.66
2022-08-10T18:52:23.981Z,85.72
2022-08-10T18:54:44.392Z,85.55
2022-08-10T18:56:59.906Z,86.35
2022-08-10T18:59:38.597Z,86.31
2022-08-10T19:02:04.942Z,86.08
2022-08-10T19:04:27.792Z,86.21
2022-08-10T19:07:00.999Z,86.30
2022-08-10T19:09:47.411Z,86.49
2022-08-10T19:11:56.519Z,86.43
2022-08-10T19:14:07.739Z,86.30
2022-08-10T19:16:35.607Z,86.06
2022-08-10T19:18:47.856Z,86.07
2022-08-10T19:20:57.651Z,86.04
2022-08-10T19:23:15.422Z,86.23
2022-08-10T19:26:39.329Z,86.44
2022-08-10T19:28:11.699Z,86.43
2022-08-10T19:30:18.426Z,86.46
2022-08-10T19:32:32.664Z,86.39
2022-08-10T19:34:38.120Z,85.73
2022-08-10T19:36:55.365Z,85.86
2022-08-10T19:39:29.322Z,86.06
2022-08-10T19:41:44.720Z,85.93
2022-08-10T19:44:03.376Z,85.96
2022-08-10T19:46:30.517Z,86.35
2022-08-10T19:48:52.751Z,86.60
2022-08-10T19:51:04.716Z,86.89
2022-08-10T19:53:19.687Z,87.00
2022-08-10T19:55:33.606Z,87.24
2022-08-10T19:57:44.460Z,87.38
2022-08-10T20:00:06.270Z,87.50
2022-08-10T20:02:23.584Z,87.78
2022-08-10T20:04:33.402Z,87.65
2022-08-10T20:06:47.887Z,87.80
2022-08-10T20:09:01.920Z,87.81
2022-08-10T20:11:45.531Z,88.21
2022-08-10T20:13:51.486Z,88.18
2022-08-10T20:16:03.191Z,87.92
2022-08-10T20:18:15.243Z,88.16
2022-08-10T20:20:48.572Z,88.18
2022-08-10T20:23:02.036Z,88.05
2022-08-10T20:25:14.060Z,88.22
2022-08-10T20:28:14.584Z,88.04
2022-08-10T20:30:01.200Z,88.25
2022-08-10T20:32:10.755Z,88.34
2022-08-10T20:34:42.515Z,88.57
2022-08-10T20:37:02.410Z,88.39
2022-08-10T20:39:16.769Z,88.20
2022-08-10T20:41:55.272Z,88.20
2022-08-10T20:44:12.619Z,88.35
2022-08-10T20:46:25.090Z,88.41
2022-08-10T20:48:40.736Z,88.31
2022-08-10T20:50:57.283Z,88.37
2022-08-10T20:53:23.390Z,88.33
2022-08-10T20:55:33.974Z,88.22
2022-08-10T20:58:27.031Z,88.33
2022-08-10T21:01:12.578Z,88.34
2022-08-10T21:03:43.686Z,88.20
2022-08-10T21:06:04.980Z,88.11
2022-08-10T21:08:58.634Z,87.96
2022-08-10T21:11:07.510Z,87.96
2022-08-10T21:13:21.692Z,87.74
2022-08-10T21:15:55.465Z,87.70
2022-08-10T21:18:20.451Z,87.47
2022-08-10T21:20:47.028Z,87.51
2022-08-10T21:22:51.767Z,87.68
2022-08-10T21:25:05.250Z,88.12
2022-08-10T21:27:41.821Z,88.54
2022-08-10T21:29:53.899Z,88.75
2022-08-10T21:32:31.831Z,89.13
2022-08-10T21:34:54.388Z,89.13
2022-08-10T21:37:22.895Z,89.22
2022-08-10T21:39:52.878Z,89.67
2022-08-10T21:42:43.659Z,89.27
2022-08-10T21:45:58.104Z,89.63
2022-08-10T21:48:40.580Z,89.76
2022-08-10T21:51:16.574Z,90.00
2022-08-10T21:53:55.205Z,90.33
2022-08-10T21:56:23.071Z,90.21
2022-08-10T21:59:10.022Z,90.53
2022-08-10T22:01:39.757Z,90.45
2022-08-10T22:04:02.708Z,90.24
2022-08-10T22:06:24.465Z,89.96
2022-08-10T22:08:55.978Z,89.99
2022-08-10T22:11:20.179Z,89.67
2022-08-10T22:13:42.922Z,89.88
2022-08-10T22:16:14.585Z,89.64
2022-08-10T22:18:53.713Z,90.00
2022-08-10T22:21:53.086Z,90.20
2022-08-10T22:24:34.776Z,89.91
2022-08-10T22:27:12.888Z,90.17
2022-08-10T22:29:58.457Z,90.10
2022-08-10T22:32:39.651Z,90.70
2022-08-10T22:35:46.672Z,90.70
2022-08-10T22:38:25.063Z,90.50
2022-08-10T22:40:46.403Z,90.75
2022-08-10T22:43:12.193Z,90.78
2022-08-10T22:45:37.392Z,90.89
2022-08-10T22:47:58.441Z,91.22
2022-08-10T22:50:07.676Z,91.34
2022-08-10T22:52:17.107Z,91.52
2022-08-10T22:55:06.459Z,91.25
2022-08-10T22:57:34.645Z,91.26
2022-08-10T22:59:37.441Z,91.38
2022-08-10T23:02:07.450Z,91.84
2022-08-10T23:04:34.775Z,91.63
2022-08-10T23:06:40.265Z,92.31
2022-08-10T23:08:50.525Z,92.33
2022-08-10T23:10:55.859Z,92.58
2022-08-10T23:13:05.870Z,92.88
2022-08-10T23:15:37.411Z,93.12
2022-08-10T23:18:01.214Z,93.66
2022-08-10T23:20:10.972Z,93.68
2022-08-10T23:22:16.520Z,93.68
2022-08-10T23:24:35.521Z,93.66
2022-08-10T23:26:39.340Z,93.43
2022-08-10T23:28:58.454Z,93.78
2022-08-10T23:31:03.014Z,93.66
2022-08-10T23:33:08.622Z,93.73
2022-08-10T23:36:29.523Z,93.74
2022-08-10T23:37:40.699Z,93.58
2022-08-10T23:39:48.619Z,93.44
2022-08-10T23:41:55.299Z,93.37
2022-08-10T23:44:04.127Z,93.34
2022-08-10T23:46:09.176Z,93.50
2022-08-10T23:48:17.994Z,93.70
2022-08-10T23:50:22.493Z,93.44
2022-08-10T23:52:32.211Z,93.57
2022-08-10T23:54:41.630Z,93.71
2022-08-10T23:56:48.147Z,94.00
2022-08-10T23:58:54.416Z,94.20
